createdAt,value
2019-05-12T00:02:04.502Z,6.96
2019-05-12T00:04:31.535Z,7.03
2019-05-12T00:06:58.703Z,6.98
2019-05-12T00:09:28.211Z,6.86
2019-05-12T00:11:59.033Z,6.78
2019-05-12T00:14:28.140Z,6.68
2019-05-12T00:16:55.414Z,6.74
2019-05-12T00:19:22.475Z,6.69
2019-05-12T00:21:49.667Z,6.49
2019-05-12T00:24:18.739Z,6.33
2019-05-12T00:26:47.601Z,6.20
2019-05-12T00:29:14.642Z,6.30
2019-05-12T00:31:42.230Z,6.37
2019-05-12T00:34:09.302Z,6.52
2019-05-12T00:36:37.966Z,6.58
2019-05-12T00:39:08.555Z,6.67
2019-05-12T00:41:35.542Z,6.57
2019-05-12T00:44:02.614Z,6.36
2019-05-12T00:46:29.702Z,6.35
2019-05-12T00:48:58.543Z,6.30
2019-05-12T00:51:25.670Z,6.43
2019-05-12T00:53:52.720Z,6.39
2019-05-12T00:56:19.780Z,6.31
2019-05-12T00:58:48.777Z,6.44
2019-05-12T01:01:18.265Z,6.45
2019-05-12T01:03:44.817Z,6.38
2019-05-12T01:06:11.855Z,6.27
2019-05-12T01:08:40.403Z,6.20
2019-05-12T01:11:08.785Z,6.00
2019-05-12T01:13:38.116Z,5.76
2019-05-12T01:16:05.095Z,5.63
2019-05-12T01:18:32.349Z,5.55
2019-05-12T01:20:59.591Z,5.53
2019-05-12T01:23:28.089Z,5.59
2019-05-12T01:25:58.286Z,5.54
2019-05-12T01:28:27.817Z,5.55
2019-05-12T01:30:58.217Z,5.52
2019-05-12T01:33:27.522Z,5.51
2019-05-12T01:35:54.289Z,5.45
2019-05-12T01:38:21.349Z,5.48
2019-05-12T01:40:48.402Z,5.50
2019-05-12T01:43:15.543Z,5.53
2019-05-12T01:45:42.596Z,5.54
2019-05-12T01:48:09.653Z,5.53
2019-05-12T01:50:38.659Z,5.63
2019-05-12T01:53:08.178Z,5.72
2019-05-12T01:55:34.876Z,5.68
2019-05-12T01:58:01.954Z,5.66
2019-05-12T02:00:29.330Z,5.77
2019-05-12T02:02:58.588Z,5.77
2019-05-12T02:05:27.958Z,5.87
2019-05-12T02:07:58.449Z,5.85
2019-05-12T02:10:25.193Z,5.84
2019-05-12T02:12:52.258Z,5.86
2019-05-12T02:15:19.894Z,5.79
2019-05-12T02:17:48.191Z,5.79
2019-05-12T02:20:18.042Z,5.73
2019-05-12T02:22:47.586Z,5.68
2019-05-12T02:25:14.928Z,5.64
2019-05-12T02:27:41.967Z,5.60
2019-05-12T02:30:10.247Z,5.51
2019-05-12T02:32:48.713Z,5.51
2019-05-12T02:35:07.352Z,5.46
2019-05-12T02:37:35.708Z,5.34
2019-05-12T02:40:05.303Z,5.34
2019-05-12T02:42:34.894Z,5.26
2019-05-12T02:45:05.243Z,5.25
2019-05-12T02:47:30.737Z,5.24
2019-05-12T02:49:59.283Z,5.34
2019-05-12T02:52:26.303Z,5.29
2019-05-12T02:54:59.785Z,5.42
2019-05-12T02:57:25.555Z,5.31
2019-05-12T02:59:56.736Z,5.06
2019-05-12T03:02:26.306Z,5.09
2019-05-12T03:04:54.997Z,4.81
2019-05-12T03:07:25.621Z,4.77
2019-05-12T03:09:55.101Z,4.85
2019-05-12T03:12:25.285Z,4.96
2019-05-12T03:14:54.260Z,4.93
2019-05-12T03:17:20.281Z,4.89
2019-05-12T03:19:47.315Z,4.66
2019-05-12T03:22:14.364Z,4.43
2019-05-12T03:24:44.704Z,4.47
2019-05-12T03:27:17.207Z,4.57
2019-05-12T03:29:40.483Z,4.53
2019-05-12T03:32:08.749Z,4.52
2019-05-12T03:34:38.274Z,4.45
2019-05-12T03:37:07.830Z,4.68
2019-05-12T03:39:36.061Z,4.75
2019-05-12T03:42:05.180Z,4.90
2019-05-12T03:44:35.023Z,5.09
2019-05-12T03:47:01.121Z,5.26
2019-05-12T03:49:28.118Z,5.32
2019-05-12T03:51:55.176Z,5.38
2019-05-12T03:54:24.345Z,5.47
2019-05-12T03:56:51.229Z,5.62
2019-05-12T03:59:18.270Z,5.65
2019-05-12T04:01:45.512Z,5.45
2019-05-12T04:04:15.330Z,5.35
2019-05-12T04:06:45.294Z,5.18
2019-05-12T04:09:15.454Z,5.33
2019-05-12T04:11:44.531Z,5.15
2019-05-12T04:14:14.609Z,5.53
2019-05-12T04:16:41.200Z,5.82
2019-05-12T04:19:08.223Z,6.14
2019-05-12T04:21:35.660Z,6.33
2019-05-12T04:24:05.502Z,6.44
2019-05-12T04:26:35.801Z,6.60
2019-05-12T04:29:00.846Z,6.77
2019-05-12T04:31:27.879Z,7.04
2019-05-12T04:33:55.722Z,7.41
2019-05-12T04:36:24.863Z,7.65
2019-05-12T04:38:55.266Z,8.00
2019-05-12T04:41:20.650Z,8.32
2019-05-12T04:43:48.684Z,8.60
2019-05-12T04:46:15.733Z,8.85
2019-05-12T04:48:45.324Z,8.99
2019-05-12T04:51:15.367Z,9.14
2019-05-12T04:53:44.852Z,9.03
2019-05-12T04:56:19.239Z,9.17
2019-05-12T04:58:45.020Z,9.29
2019-05-12T05:01:15.462Z,8.99
2019-05-12T05:03:45.465Z,9.08
2019-05-12T05:06:14.920Z,9.36
2019-05-12T05:08:44.293Z,9.64
2019-05-12T05:11:14.559Z,9.92
2019-05-12T05:13:40.741Z,10.12
2019-05-12T05:16:07.796Z,10.09
2019-05-12T05:18:34.865Z,10.39
2019-05-12T05:21:04.661Z,10.16
2019-05-12T05:23:33.491Z,10.26
2019-05-12T05:26:03.267Z,10.33
2019-05-12T05:28:33.979Z,10.70
2019-05-12T05:31:03.490Z,10.25
2019-05-12T05:33:30.742Z,9.95
2019-05-12T05:35:57.778Z,10.25
2019-05-12T05:38:24.935Z,9.80
2019-05-12T05:40:53.990Z,9.06
2019-05-12T05:43:24.173Z,9.21
2019-05-12T05:45:54.537Z,9.95
2019-05-12T05:48:20.343Z,10.68
2019-05-12T05:50:47.384Z,10.60
2019-05-12T05:53:19.561Z,11.07
2019-05-12T05:55:44.222Z,10.59
2019-05-12T05:58:15.421Z,10.77
2019-05-12T06:00:43.468Z,10.75
2019-05-12T06:03:17.009Z,11.46
2019-05-12T06:05:39.591Z,11.25
2019-05-12T06:08:09.624Z,10.36
2019-05-12T06:10:40.523Z,9.87
2019-05-12T06:13:07.711Z,10.12
2019-05-12T06:15:40.704Z,9.62
2019-05-12T06:18:08.396Z,9.43
2019-05-12T06:20:38.050Z,9.35
2019-05-12T06:23:05.700Z,8.96
2019-05-12T06:25:46.030Z,8.84
2019-05-12T06:28:08.874Z,8.58
2019-05-12T06:30:44.317Z,8.02
2019-05-12T06:33:06.738Z,8.09
2019-05-12T06:35:42.125Z,7.75
2019-05-12T06:38:08.293Z,7.72
2019-05-12T06:40:41.022Z,7.98
2019-05-12T06:43:04.945Z,8.16
2019-05-12T06:45:34.008Z,8.02
2019-05-12T06:48:03.255Z,8.18
2019-05-12T06:50:36.975Z,8.13
2019-05-12T06:53:05.254Z,7.81
2019-05-12T06:55:34.437Z,8.06
2019-05-12T06:58:04.462Z,8.05
2019-05-12T07:00:32.652Z,7.71
2019-05-12T07:03:03.932Z,8.02
2019-05-12T07:05:40.807Z,8.14
2019-05-12T07:08:08.988Z,8.94
2019-05-12T07:10:43.403Z,8.46
2019-05-12T07:13:08.747Z,8.31
2019-05-12T07:15:40.561Z,8.15
2019-05-12T07:18:13.713Z,8.28
2019-05-12T07:20:43.587Z,8.88
2019-05-12T07:23:10.775Z,8.59
2019-05-12T07:25:37.868Z,8.81
2019-05-12T07:28:07.926Z,8.87
2019-05-12T07:30:36.137Z,8.50
2019-05-12T07:33:04.876Z,8.67
2019-05-12T07:35:33.949Z,8.41
2019-05-12T07:38:04.275Z,9.51
2019-05-12T07:40:38.919Z,9.58
2019-05-12T07:43:16.361Z,9.83
2019-05-12T07:45:56.567Z,9.72
2019-05-12T07:48:18.012Z,9.85
2019-05-12T07:50:50.307Z,9.24
2019-05-12T07:53:17.884Z,10.15
2019-05-12T07:56:03.960Z,10.36
2019-05-12T07:58:33.620Z,10.06
2019-05-12T08:01:02.949Z,10.70
2019-05-12T08:03:30.800Z,10.64
2019-05-12T08:06:04.484Z,10.60
2019-05-12T08:08:35.643Z,10.17
2019-05-12T08:11:04.377Z,10.71
2019-05-12T08:13:56.933Z,10.72
2019-05-12T08:16:38.577Z,11.08
2019-05-12T08:19:08.547Z,10.83
2019-05-12T08:21:43.555Z,11.13
2019-05-12T08:24:04.870Z,11.24
2019-05-12T08:26:34.921Z,12.73
2019-05-12T08:29:04.472Z,12.95
2019-05-12T08:31:38.512Z,11.91
2019-05-12T08:34:01.015Z,11.40
2019-05-12T08:36:30.792Z,13.01
2019-05-12T08:38:57.948Z,11.89
2019-05-12T08:41:25.546Z,10.65
2019-05-12T08:43:58.142Z,11.77
2019-05-12T08:46:24.295Z,12.51
2019-05-12T08:48:57.977Z,14.25
2019-05-12T08:51:20.731Z,14.27
2019-05-12T08:53:47.833Z,14.05
2019-05-12T08:56:19.363Z,12.59
2019-05-12T08:58:50.928Z,12.61
2019-05-12T09:01:14.396Z,11.64
2019-05-12T09:03:44.269Z,11.20
2019-05-12T09:06:15.510Z,12.55
2019-05-12T09:08:44.891Z,12.71
2019-05-12T09:11:14.400Z,11.89
2019-05-12T09:13:44.064Z,11.84
2019-05-12T09:16:19.293Z,12.54
2019-05-12T09:18:46.476Z,12.25
2019-05-12T09:21:14.226Z,13.01
2019-05-12T09:23:44.980Z,13.90
2019-05-12T09:26:10.745Z,14.62
2019-05-12T09:28:49.250Z,13.01
2019-05-12T09:31:14.136Z,12.61
2019-05-12T09:33:44.679Z,13.16
2019-05-12T09:36:19.792Z,12.13
2019-05-12T09:38:41.151Z,13.89
2019-05-12T09:41:08.363Z,15.25
2019-05-12T09:43:40.135Z,15.76
2019-05-12T09:46:04.628Z,15.05
2019-05-12T09:48:52.079Z,14.96
2019-05-12T09:51:40.671Z,15.08
2019-05-12T09:54:02.205Z,14.65
2019-05-12T09:56:29.496Z,14.89
2019-05-12T09:59:01.571Z,14.20
2019-05-12T10:01:29.413Z,14.72
2019-05-12T10:04:03.304Z,12.50
2019-05-12T10:06:41.297Z,13.12
2019-05-12T10:09:19.823Z,13.47
2019-05-12T10:11:44.855Z,15.72
2019-05-12T10:14:15.098Z,14.68
2019-05-12T10:16:45.671Z,13.28
2019-05-12T10:19:14.416Z,13.88
2019-05-12T10:21:43.852Z,13.10
2019-05-12T10:24:10.886Z,13.02
2019-05-12T10:26:41.190Z,15.14
2019-05-12T10:29:17.520Z,13.93
2019-05-12T10:31:39.403Z,13.30
2019-05-12T10:34:20.504Z,13.87
2019-05-12T10:36:54.169Z,14.33
2019-05-12T10:39:21.316Z,13.66
2019-05-12T10:41:48.606Z,13.71
2019-05-12T10:44:15.799Z,13.74
2019-05-12T10:46:43.864Z,13.31
2019-05-12T10:49:13.937Z,13.18
2019-05-12T10:51:43.623Z,13.11
2019-05-12T10:54:13.146Z,13.73
2019-05-12T10:56:39.219Z,13.42
2019-05-12T10:59:06.439Z,14.06
2019-05-12T11:01:38.367Z,14.81
2019-05-12T11:04:03.934Z,14.90
2019-05-12T11:06:31.173Z,13.62
2019-05-12T11:08:58.277Z,14.14
2019-05-12T11:11:33.020Z,13.87
2019-05-12T11:13:56.884Z,14.35
2019-05-12T11:16:31.137Z,14.89
2019-05-12T11:18:54.226Z,16.24
2019-05-12T11:21:22.465Z,17.09
2019-05-12T11:23:50.743Z,15.36
2019-05-12T11:26:18.804Z,15.17
2019-05-12T11:28:45.878Z,19.22
2019-05-12T11:31:13.633Z,19.12
2019-05-12T11:33:40.892Z,18.34
2019-05-12T11:36:08.287Z,20.03
2019-05-12T11:38:38.611Z,20.60
2019-05-12T11:41:10.174Z,17.51
2019-05-12T11:43:34.618Z,14.31
2019-05-12T11:46:01.994Z,17.48
2019-05-12T11:48:29.091Z,22.21
2019-05-12T11:50:56.125Z,25.08
2019-05-12T11:53:30.247Z,23.73
2019-05-12T11:55:54.322Z,22.10
2019-05-12T11:58:23.453Z,16.97
2019-05-12T12:00:53.346Z,19.15
2019-05-12T12:03:20.558Z,21.11
2019-05-12T12:05:47.639Z,22.61
2019-05-12T12:08:14.745Z,24.94
2019-05-12T12:10:42.120Z,22.14
2019-05-12T12:13:09.292Z,16.92
2019-05-12T12:15:36.490Z,16.33
2019-05-12T12:18:12.967Z,17.90
2019-05-12T12:20:36.595Z,21.05
2019-05-12T12:23:11.097Z,22.10
2019-05-12T12:25:34.214Z,25.21
2019-05-12T12:28:01.597Z,23.23
2019-05-12T12:30:28.742Z,22.43
2019-05-12T12:33:00.285Z,26.05
2019-05-12T12:35:26.857Z,30.27
2019-05-12T12:37:54.241Z,27.17
2019-05-12T12:40:23.091Z,18.09
2019-05-12T12:42:50.155Z,15.80
2019-05-12T12:45:30.463Z,18.16
2019-05-12T12:47:58.134Z,18.80
2019-05-12T12:50:28.555Z,23.45
2019-05-12T12:52:54.208Z,18.58
2019-05-12T12:55:23.319Z,18.03
2019-05-12T12:57:50.842Z,22.03
2019-05-12T13:00:29.873Z,22.83
2019-05-12T13:03:00.138Z,19.27
2019-05-12T13:05:34.553Z,18.59
2019-05-12T13:08:04.089Z,17.53
2019-05-12T13:10:30.734Z,24.38
2019-05-12T13:13:01.122Z,23.13
2019-05-12T13:15:28.390Z,22.81
2019-05-12T13:17:55.468Z,23.01
2019-05-12T13:20:24.331Z,19.22
2019-05-12T13:22:53.516Z,20.77
2019-05-12T13:25:26.349Z,24.84
2019-05-12T13:27:53.551Z,24.19
2019-05-12T13:30:24.340Z,24.93
2019-05-12T13:32:51.519Z,28.28
2019-05-12T13:35:20.169Z,24.39
2019-05-12T13:37:58.440Z,23.44
2019-05-12T13:41:23.223Z,16.81
2019-05-12T13:44:20.786Z,16.43
2019-05-12T13:46:54.725Z,17.77
2019-05-12T13:49:20.591Z,20.92
2019-05-12T13:51:48.862Z,24.38
2019-05-12T13:54:20.170Z,30.49
2019-05-12T13:56:45.818Z,26.64
2019-05-12T13:59:20.760Z,26.11
2019-05-12T14:01:46.847Z,29.03
2019-05-12T14:04:22.164Z,22.96
2019-05-12T14:06:48.708Z,24.19
2019-05-12T14:09:16.106Z,21.53
2019-05-12T14:11:43.669Z,23.65
2019-05-12T14:14:15.401Z,29.99
2019-05-12T14:16:44.679Z,30.78
2019-05-12T14:19:11.521Z,27.49
2019-05-12T14:21:41.528Z,25.34
2019-05-12T14:24:13.726Z,23.33
2019-05-12T14:26:47.582Z,20.79
2019-05-12T14:29:10.327Z,22.08
2019-05-12T14:31:45.402Z,22.20
2019-05-12T14:34:10.401Z,26.52
2019-05-12T14:36:37.686Z,29.66
2019-05-12T14:39:10.289Z,25.88
2019-05-12T14:41:44.487Z,27.84
2019-05-12T14:44:13.749Z,25.41
2019-05-12T14:46:46.250Z,24.24
2019-05-12T14:49:14.025Z,22.00
2019-05-12T14:51:41.136Z,22.88
2019-05-12T14:54:08.632Z,18.69
2019-05-12T14:56:53.029Z,19.38
2019-05-12T14:59:16.086Z,23.52
2019-05-12T15:01:57.441Z,22.81
2019-05-12T15:04:27.982Z,26.56
2019-05-12T15:06:50.375Z,27.34
2019-05-12T15:09:21.791Z,23.49
2019-05-12T15:11:47.852Z,24.57
2019-05-12T15:14:14.916Z,23.27
2019-05-12T15:16:44.691Z,23.50
2019-05-12T15:19:14.619Z,24.66
2019-05-12T15:21:43.680Z,26.85
2019-05-12T15:24:15.449Z,21.95
2019-05-12T15:26:43.540Z,18.11
2019-05-12T15:29:13.287Z,17.02
2019-05-12T15:31:52.761Z,16.12
2019-05-12T15:34:14.402Z,15.78
2019-05-12T15:36:43.682Z,19.44
2019-05-12T15:39:10.852Z,21.88
2019-05-12T15:41:38.073Z,19.06
2019-05-12T15:44:06.615Z,15.88
2019-05-12T15:46:41.016Z,15.68
2019-05-12T15:49:03.674Z,15.56
2019-05-12T15:51:35.066Z,15.42
2019-05-12T15:54:06.576Z,15.25
2019-05-12T15:56:32.314Z,17.26
2019-05-12T15:59:01.113Z,22.02
2019-05-12T16:01:35.941Z,23.58
2019-05-12T16:04:03.772Z,22.59
2019-05-12T16:06:31.179Z,18.37
2019-05-12T16:08:58.517Z,16.12
2019-05-12T16:11:25.972Z,15.25
2019-05-12T16:14:03.848Z,14.76
2019-05-12T16:16:36.408Z,14.63
2019-05-12T16:19:01.272Z,16.58
2019-05-12T16:21:28.882Z,18.30
2019-05-12T16:24:04.886Z,18.95
2019-05-12T16:26:33.540Z,19.42
2019-05-12T16:29:05.862Z,17.57
2019-05-12T16:31:33.932Z,17.31
2019-05-12T16:34:05.903Z,18.63
2019-05-12T16:36:33.607Z,18.02
2019-05-12T16:39:07.661Z,16.48
2019-05-12T16:41:34.876Z,16.47
2019-05-12T16:44:07.848Z,17.76
2019-05-12T16:46:31.061Z,20.04
2019-05-12T16:49:03.346Z,19.93
2019-05-12T16:51:33.283Z,17.69
2019-05-12T16:54:06.936Z,15.85
2019-05-12T16:56:34.496Z,15.54
2019-05-12T16:59:07.248Z,16.25
2019-05-12T17:01:33.464Z,16.81
2019-05-12T17:04:00.668Z,18.35
2019-05-12T17:06:34.936Z,18.15
2019-05-12T17:09:03.213Z,17.83
2019-05-12T17:11:37.452Z,17.59
2019-05-12T17:14:05.090Z,16.77
2019-05-12T17:16:42.104Z,15.99
2019-05-12T17:19:10.628Z,15.40
2019-05-12T17:21:44.096Z,15.32
2019-05-12T17:24:16.876Z,16.09
2019-05-12T17:26:47.189Z,18.42
2019-05-12T17:29:14.430Z,18.74
2019-05-12T17:31:45.137Z,17.56
2019-05-12T17:34:14.256Z,17.66
2019-05-12T17:36:41.720Z,18.08
2019-05-12T17:39:13.856Z,16.99
2019-05-12T17:41:46.179Z,15.44
2019-05-12T17:44:13.679Z,14.68
2019-05-12T17:46:46.537Z,14.23
2019-05-12T17:49:25.352Z,14.16
2019-05-12T17:51:47.915Z,14.07
2019-05-12T17:54:21.529Z,13.88
2019-05-12T17:56:45.526Z,13.84
2019-05-12T17:59:27.605Z,13.77
2019-05-12T18:01:46.511Z,13.70
2019-05-12T18:04:14.067Z,13.48
2019-05-12T18:06:44.137Z,13.30
2019-05-12T18:09:15.835Z,13.15
2019-05-12T18:11:40.971Z,13.29
2019-05-12T18:14:09.468Z,13.69
2019-05-12T18:16:36.585Z,13.32
2019-05-12T18:19:08.908Z,13.01
2019-05-12T18:21:34.730Z,13.36
2019-05-12T18:24:08.887Z,13.87
2019-05-12T18:26:33.828Z,13.63
2019-05-12T18:29:15.909Z,13.00
2019-05-12T18:31:53.419Z,12.91
2019-05-12T18:34:21.185Z,13.26
2019-05-12T18:36:54.814Z,13.39
2019-05-12T18:39:17.279Z,13.47
2019-05-12T18:41:44.601Z,13.28
2019-05-12T18:44:25.271Z,13.26
2019-05-12T18:46:49.460Z,13.25
2019-05-12T18:49:16.816Z,13.11
2019-05-12T18:51:49.166Z,12.94
2019-05-12T18:54:15.612Z,12.63
2019-05-12T18:56:52.488Z,12.20
2019-05-12T18:59:18.778Z,11.98
2019-05-12T19:01:45.967Z,11.66
2019-05-12T19:04:14.340Z,11.40
2019-05-12T19:06:43.801Z,11.24
2019-05-12T19:09:15.183Z,11.20
2019-05-12T19:11:46.441Z,11.31
2019-05-12T19:14:13.502Z,11.17
2019-05-12T19:16:40.448Z,11.26
2019-05-12T19:19:09.711Z,10.98
2019-05-12T19:21:39.789Z,10.81
2019-05-12T19:24:17.523Z,10.73
2019-05-12T19:26:40.478Z,10.66
2019-05-12T19:29:08.569Z,10.42
2019-05-12T19:31:36.680Z,10.30
2019-05-12T19:34:18.765Z,10.21
2019-05-12T19:36:45.063Z,10.07
2019-05-12T19:39:11.492Z,10.00
2019-05-12T19:41:38.666Z,10.08
2019-05-12T19:44:05.755Z,10.12
2019-05-12T19:46:34.196Z,10.15
2019-05-12T19:49:04.438Z,10.18
2019-05-12T19:51:31.972Z,10.05
2019-05-12T19:53:59.222Z,10.00
2019-05-12T19:56:34.525Z,9.94
2019-05-12T19:58:57.308Z,9.93
2019-05-12T20:01:32.356Z,9.82
2019-05-12T20:04:03.568Z,9.70
2019-05-12T20:06:39.065Z,9.76
2019-05-12T20:09:10.923Z,9.65
2019-05-12T20:11:39.573Z,9.61
2019-05-12T20:14:10.041Z,9.64
2019-05-12T20:16:37.036Z,9.49
2019-05-12T20:19:04.490Z,9.36
2019-05-12T20:21:34.019Z,9.28
2019-05-12T20:24:03.696Z,9.21
2019-05-12T20:26:33.274Z,9.25
2019-05-12T20:29:00.234Z,9.18
2019-05-12T20:31:27.672Z,9.16
2019-05-12T20:34:03.433Z,9.12
2019-05-12T20:36:27.735Z,9.02
2019-05-12T20:38:55.013Z,8.95
2019-05-12T20:41:26.570Z,8.87
2019-05-12T20:43:52.733Z,8.77
2019-05-12T20:46:24.285Z,8.72
2019-05-12T20:48:48.908Z,8.73
2019-05-12T20:51:20.054Z,8.72
2019-05-12T20:53:45.068Z,8.63
2019-05-12T20:56:18.503Z,8.58
2019-05-12T20:58:44.296Z,8.69
2019-05-12T21:01:10.295Z,8.61
2019-05-12T21:03:39.861Z,8.57
2019-05-12T21:06:09.004Z,8.71
2019-05-12T21:08:36.104Z,8.75
2019-05-12T21:11:03.171Z,8.68
2019-05-12T21:13:31.895Z,8.60
2019-05-12T21:15:59.413Z,8.60
2019-05-12T21:18:26.714Z,8.66
2019-05-12T21:20:56.716Z,8.51
2019-05-12T21:23:24.270Z,8.36
2019-05-12T21:25:55.963Z,8.34
2019-05-12T21:28:23.858Z,8.36
2019-05-12T21:30:53.142Z,8.30
2019-05-12T21:33:19.921Z,8.39
2019-05-12T21:35:47.205Z,8.47
2019-05-12T21:38:25.165Z,8.27
2019-05-12T21:40:51.182Z,8.24
2019-05-12T21:43:20.495Z,8.19
2019-05-12T21:45:47.591Z,8.22
2019-05-12T21:48:23.686Z,8.13
2019-05-12T21:50:46.138Z,8.06
2019-05-12T21:53:20.597Z,8.04
2019-05-12T21:55:46.897Z,8.12
2019-05-12T21:58:15.259Z,7.94
2019-05-12T22:00:50.548Z,7.86
2019-05-12T22:03:18.903Z,7.72
2019-05-12T22:05:51.354Z,7.75
2019-05-12T22:08:22.199Z,7.79
2019-05-12T22:10:47.489Z,7.67
2019-05-12T22:13:17.972Z,7.62
2019-05-12T22:15:44.691Z,7.73
2019-05-12T22:18:13.079Z,7.72
2019-05-12T22:20:40.153Z,7.63
2019-05-12T22:23:11.952Z,7.56
2019-05-12T22:25:36.192Z,7.71
2019-05-12T22:28:07.859Z,7.74
2019-05-12T22:30:34.866Z,7.58
2019-05-12T22:33:05.938Z,7.32
2019-05-12T22:35:30.840Z,7.15
2019-05-12T22:37:57.880Z,7.22
2019-05-12T22:40:24.997Z,7.25
2019-05-12T22:42:57.060Z,7.14
2019-05-12T22:45:23.985Z,7.07
2019-05-12T22:47:55.322Z,7.23
2019-05-12T22:50:22.075Z,7.05
2019-05-12T22:52:49.561Z,6.92
2019-05-12T22:55:21.308Z,6.73
2019-05-12T22:57:46.123Z,6.64
2019-05-12T23:00:19.220Z,6.49
2019-05-12T23:02:44.849Z,6.64
2019-05-12T23:05:18.521Z,6.57
2019-05-12T23:07:43.959Z,6.52
2019-05-12T23:10:14.055Z,6.61
2019-05-12T23:12:40.148Z,6.59
2019-05-12T23:15:07.777Z,6.68
2019-05-12T23:17:38.961Z,6.71
2019-05-12T23:20:04.990Z,6.77
2019-05-12T23:22:34.998Z,6.76
2019-05-12T23:25:03.825Z,6.68
2019-05-12T23:27:30.174Z,6.60
2019-05-12T23:30:01.429Z,6.58
2019-05-12T23:32:26.221Z,6.85
2019-05-12T23:34:58.403Z,7.03
2019-05-12T23:37:24.400Z,6.81
2019-05-12T23:39:53.731Z,6.65
2019-05-12T23:42:20.975Z,6.54
2019-05-12T23:44:49.121Z,6.49
2019-05-12T23:47:16.354Z,6.40
2019-05-12T23:49:44.397Z,6.47
2019-05-12T23:52:14.032Z,6.55
2019-05-12T23:54:41.038Z,6.41
2019-05-12T23:57:12.934Z,6.55
2019-05-12T23:59:39.159Z,6.75
